sensor_id;sensor_type;location;lat;lon;timestamp;P1;durP1;ratioP1;P2;durP2;ratioP2
62788;SDS011;66401;42.016;21.454;2024-03-23T00:55:27;14.40;;;8.40;;
62788;SDS011;66401;42.016;21.454;2024-03-23T00:57:53;17.37;;;8.30;;
62788;SDS011;66401;42.016;21.454;2024-03-23T01:00:18;16.60;;;7.93;;
62788;SDS011;66401;42.016;21.454;2024-03-23T01:02:44;18.23;;;9.73;;
62788;SDS011;66401;42.016;21.454;2024-03-23T01:05:09;21.57;;;9.70;;
62788;SDS011;66401;42.016;21.454;2024-03-23T01:07:35;16.67;;;8.97;;
62788;SDS011;66401;42.016;21.454;2024-03-23T01:10:00;17.07;;;9.87;;
62788;SDS011;66401;42.016;21.454;2024-03-23T01:12:26;20.53;;;12.03;;
62788;SDS011;66401;42.016;21.454;2024-03-23T01:14:51;23.47;;;12.50;;
62788;SDS011;66401;42.016;21.454;2024-03-23T01:17:17;24.83;;;14.00;;
62788;SDS011;66401;42.016;21.454;2024-03-23T01:19:42;25.47;;;13.40;;
62788;SDS011;66401;42.016;21.454;2024-03-23T01:22:08;24.63;;;13.37;;
62788;SDS011;66401;42.016;21.454;2024-03-23T01:24:35;27.63;;;13.47;;
62788;SDS011;66401;42.016;21.454;2024-03-23T01:27:01;23.73;;;12.30;;
62788;SDS011;66401;42.016;21.454;2024-03-23T01:29:26;24.60;;;12.93;;
62788;SDS011;66401;42.016;21.454;2024-03-23T01:31:51;22.53;;;12.50;;
62788;SDS011;66401;42.016;21.454;2024-03-23T01:34:17;23.37;;;13.07;;
62788;SDS011;66401;42.016;21.454;2024-03-23T01:36:42;21.67;;;11.43;;
62788;SDS011;66401;42.016;21.454;2024-03-23T01:39:08;23.53;;;11.20;;
62788;SDS011;66401;42.016;21.454;2024-03-23T01:41:36;23.93;;;12.40;;
62788;SDS011;66401;42.016;21.454;2024-03-23T01:44:05;20.50;;;10.63;;
62788;SDS011;66401;42.016;21.454;2024-03-23T01:46:32;17.33;;;8.97;;
62788;SDS011;66401;42.016;21.454;2024-03-23T01:48:58;14.53;;;9.67;;
62788;SDS011;66401;42.016;21.454;2024-03-23T01:51:24;21.37;;;8.37;;
62788;SDS011;66401;42.016;21.454;2024-03-23T01:53:50;16.30;;;8.63;;
62788;SDS011;66401;42.016;21.454;2024-03-23T01:56:16;15.63;;;8.97;;
62788;SDS011;66401;42.016;21.454;2024-03-23T01:58:41;15.63;;;8.60;;
62788;SDS011;66401;42.016;21.454;2024-03-23T02:01:06;11.67;;;7.23;;
62788;SDS011;66401;42.016;21.454;2024-03-23T02:03:32;12.27;;;8.00;;
62788;SDS011;66401;42.016;21.454;2024-03-23T02:05:58;11.87;;;6.83;;
62788;SDS011;66401;42.016;21.454;2024-03-23T02:08:25;19.20;;;9.30;;
62788;SDS011;66401;42.016;21.454;2024-03-23T02:10:51;18.07;;;8.83;;
62788;SDS011;66401;42.016;21.454;2024-03-23T02:13:17;12.87;;;6.90;;
62788;SDS011;66401;42.016;21.454;2024-03-23T02:15:43;11.33;;;6.97;;
62788;SDS011;66401;42.016;21.454;2024-03-23T02:18:09;13.37;;;6.83;;
62788;SDS011;66401;42.016;21.454;2024-03-23T02:20:36;13.17;;;6.80;;
62788;SDS011;66401;42.016;21.454;2024-03-23T02:23:02;9.43;;;6.20;;
62788;SDS011;66401;42.016;21.454;2024-03-23T02:25:28;11.40;;;5.23;;
62788;SDS011;66401;42.016;21.454;2024-03-23T02:27:53;13.10;;;6.63;;
62788;SDS011;66401;42.016;21.454;2024-03-23T02:30:20;10.23;;;6.23;;
62788;SDS011;66401;42.016;21.454;2024-03-23T02:32:45;11.40;;;6.93;;
62788;SDS011;66401;42.016;21.454;2024-03-23T02:35:11;10.10;;;5.60;;
62788;SDS011;66401;42.016;21.454;2024-03-23T02:37:37;6.93;;;5.50;;
62788;SDS011;66401;42.016;21.454;2024-03-23T02:40:03;11.47;;;6.33;;
62788;SDS011;66401;42.016;21.454;2024-03-23T02:42:28;10.23;;;6.43;;
62788;SDS011;66401;42.016;21.454;2024-03-23T02:44:54;6.63;;;5.67;;
62788;SDS011;66401;42.016;21.454;2024-03-23T02:47:19;8.43;;;5.03;;
62788;SDS011;66401;42.016;21.454;2024-03-23T02:49:45;13.17;;;7.23;;
62788;SDS011;66401;42.016;21.454;2024-03-23T02:52:10;11.03;;;6.47;;
62788;SDS011;66401;42.016;21.454;2024-03-23T02:54:36;12.87;;;6.03;;
62788;SDS011;66401;42.016;21.454;2024-03-23T02:57:02;11.87;;;6.53;;
62788;SDS011;66401;42.016;21.454;2024-03-23T02:59:27;10.23;;;6.97;;
62788;SDS011;66401;42.016;21.454;2024-03-23T03:01:53;13.30;;;6.83;;
62788;SDS011;66401;42.016;21.454;2024-03-23T03:04:18;11.00;;;5.97;;
62788;SDS011;66401;42.016;21.454;2024-03-23T03:06:47;10.00;;;6.77;;
62788;SDS011;66401;42.016;21.454;2024-03-23T03:09:13;10.37;;;5.93;;
62788;SDS011;66401;42.016;21.454;2024-03-23T03:11:38;11.63;;;6.30;;
62788;SDS011;66401;42.016;21.454;2024-03-23T03:14:04;10.63;;;5.70;;
62788;SDS011;66401;42.016;21.454;2024-03-23T03:16:32;8.03;;;5.90;;
62788;SDS011;66401;42.016;21.454;2024-03-23T03:18:58;9.90;;;6.07;;
62788;SDS011;66401;42.016;21.454;2024-03-23T03:21:23;15.00;;;6.60;;
62788;SDS011;66401;42.016;21.454;2024-03-23T03:23:49;8.17;;;5.50;;
62788;SDS011;66401;42.016;21.454;2024-03-23T03:26:16;14.93;;;6.67;;
62788;SDS011;66401;42.016;21.454;2024-03-23T03:28:42;8.67;;;6.03;;
62788;SDS011;66401;42.016;21.454;2024-03-23T03:31:09;8.57;;;5.40;;
62788;SDS011;66401;42.016;21.454;2024-03-23T03:33:34;9.53;;;5.37;;
62788;SDS011;66401;42.016;21.454;2024-03-23T03:36:00;10.63;;;5.60;;
62788;SDS011;66401;42.016;21.454;2024-03-23T03:38:25;8.83;;;6.30;;
62788;SDS011;66401;42.016;21.454;2024-03-23T03:40:51;9.03;;;5.53;;
62788;SDS011;66401;42.016;21.454;2024-03-23T03:43:17;9.40;;;5.33;;
62788;SDS011;66401;42.016;21.454;2024-03-23T03:45:50;9.03;;;5.87;;
62788;SDS011;66401;42.016;21.454;2024-03-23T03:48:17;7.73;;;5.43;;
62788;SDS011;66401;42.016;21.454;2024-03-23T03:50:43;10.87;;;5.80;;
62788;SDS011;66401;42.016;21.454;2024-03-23T03:53:08;14.77;;;6.97;;
62788;SDS011;66401;42.016;21.454;2024-03-23T03:55:33;9.93;;;5.60;;
62788;SDS011;66401;42.016;21.454;2024-03-23T03:57:59;11.50;;;6.37;;
62788;SDS011;66401;42.016;21.454;2024-03-23T04:00:24;14.80;;;6.63;;
62788;SDS011;66401;42.016;21.454;2024-03-23T04:02:50;11.60;;;6.43;;
62788;SDS011;66401;42.016;21.454;2024-03-23T04:05:15;10.57;;;5.93;;
62788;SDS011;66401;42.016;21.454;2024-03-23T04:07:41;19.17;;;8.13;;
62788;SDS011;66401;42.016;21.454;2024-03-23T04:10:07;13.60;;;7.00;;
62788;SDS011;66401;42.016;21.454;2024-03-23T04:12:33;13.93;;;7.33;;
62788;SDS011;66401;42.016;21.454;2024-03-23T04:14:59;11.07;;;6.33;;
62788;SDS011;66401;42.016;21.454;2024-03-23T04:17:25;7.07;;;5.43;;
62788;SDS011;66401;42.016;21.454;2024-03-23T04:19:52;11.37;;;6.23;;
62788;SDS011;66401;42.016;21.454;2024-03-23T04:22:19;12.77;;;5.87;;
62788;SDS011;66401;42.016;21.454;2024-03-23T04:24:44;10.00;;;5.83;;
62788;SDS011;66401;42.016;21.454;2024-03-23T04:27:10;9.50;;;5.03;;
62788;SDS011;66401;42.016;21.454;2024-03-23T04:29:35;6.97;;;5.20;;
62788;SDS011;66401;42.016;21.454;2024-03-23T04:32:01;10.40;;;5.73;;
62788;SDS011;66401;42.016;21.454;2024-03-23T04:34:27;6.27;;;4.20;;
62788;SDS011;66401;42.016;21.454;2024-03-23T04:36:52;5.90;;;4.63;;
62788;SDS011;66401;42.016;21.454;2024-03-23T04:39:18;14.37;;;6.53;;
62788;SDS011;66401;42.016;21.454;2024-03-23T04:41:44;7.23;;;4.80;;
62788;SDS011;66401;42.016;21.454;2024-03-23T04:44:10;10.90;;;5.73;;
62788;SDS011;66401;42.016;21.454;2024-03-23T04:46:36;10.80;;;6.20;;
62788;SDS011;66401;42.016;21.454;2024-03-23T04:49:01;12.27;;;5.70;;
62788;SDS011;66401;42.016;21.454;2024-03-23T04:51:34;8.13;;;4.97;;
62788;SDS011;66401;42.016;21.454;2024-03-23T04:54:01;7.63;;;5.73;;
62788;SDS011;66401;42.016;21.454;2024-03-23T04:56:26;6.13;;;4.73;;
62788;SDS011;66401;42.016;21.454;2024-03-23T04:58:52;13.77;;;6.60;;
62788;SDS011;66401;42.016;21.454;2024-03-23T05:01:18;9.50;;;5.87;;
62788;SDS011;66401;42.016;21.454;2024-03-23T05:03:43;18.23;;;8.40;;
62788;SDS011;66401;42.016;21.454;2024-03-23T05:06:09;17.80;;;8.07;;
62788;SDS011;66401;42.016;21.454;2024-03-23T05:08:34;16.83;;;8.83;;
62788;SDS011;66401;42.016;21.454;2024-03-23T05:11:00;11.23;;;8.17;;
62788;SDS011;66401;42.016;21.454;2024-03-23T05:13:25;11.93;;;8.50;;
62788;SDS011;66401;42.016;21.454;2024-03-23T05:15:52;18.57;;;8.97;;
62788;SDS011;66401;42.016;21.454;2024-03-23T05:18:18;18.43;;;9.03;;
62788;SDS011;66401;42.016;21.454;2024-03-23T05:20:44;18.13;;;9.07;;
62788;SDS011;66401;42.016;21.454;2024-03-23T05:23:09;17.63;;;9.70;;
62788;SDS011;66401;42.016;21.454;2024-03-23T05:25:35;20.23;;;9.93;;
62788;SDS011;66401;42.016;21.454;2024-03-23T05:28:00;18.10;;;8.53;;
62788;SDS011;66401;42.016;21.454;2024-03-23T05:30:26;19.03;;;8.57;;
62788;SDS011;66401;42.016;21.454;2024-03-23T05:32:51;21.57;;;9.37;;
62788;SDS011;66401;42.016;21.454;2024-03-23T05:35:16;25.50;;;10.90;;
62788;SDS011;66401;42.016;21.454;2024-03-23T05:37:42;21.77;;;10.17;;
62788;SDS011;66401;42.016;21.454;2024-03-23T05:40:07;21.57;;;11.07;;
62788;SDS011;66401;42.016;21.454;2024-03-23T05:42:34;14.27;;;8.00;;
62788;SDS011;66401;42.016;21.454;2024-03-23T05:45:00;20.77;;;11.70;;
62788;SDS011;66401;42.016;21.454;2024-03-23T05:47:25;31.07;;;11.73;;
62788;SDS011;66401;42.016;21.454;2024-03-23T05:49:51;18.93;;;9.60;;
62788;SDS011;66401;42.016;21.454;2024-03-23T05:52:17;18.37;;;10.73;;
62788;SDS011;66401;42.016;21.454;2024-03-23T05:54:42;19.37;;;10.73;;
62788;SDS011;66401;42.016;21.454;2024-03-23T05:57:09;22.17;;;12.37;;
62788;SDS011;66401;42.016;21.454;2024-03-23T05:59:34;18.90;;;11.70;;
62788;SDS011;66401;42.016;21.454;2024-03-23T06:02:00;17.70;;;10.80;;
62788;SDS011;66401;42.016;21.454;2024-03-23T06:04:25;19.97;;;11.23;;
62788;SDS011;66401;42.016;21.454;2024-03-23T06:06:51;19.03;;;10.30;;
62788;SDS011;66401;42.016;21.454;2024-03-23T06:09:19;16.70;;;10.53;;
62788;SDS011;66401;42.016;21.454;2024-03-23T06:11:45;16.57;;;9.97;;
62788;SDS011;66401;42.016;21.454;2024-03-23T06:14:10;16.97;;;10.83;;
62788;SDS011;66401;42.016;21.454;2024-03-23T06:16:36;16.43;;;10.07;;
62788;SDS011;66401;42.016;21.454;2024-03-23T06:19:02;20.70;;;10.23;;
62788;SDS011;66401;42.016;21.454;2024-03-23T06:21:29;17.63;;;9.53;;
62788;SDS011;66401;42.016;21.454;2024-03-23T06:23:56;16.43;;;9.63;;
62788;SDS011;66401;42.016;21.454;2024-03-23T06:26:21;15.47;;;8.83;;
62788;SDS011;66401;42.016;21.454;2024-03-23T06:28:47;15.70;;;8.30;;
62788;SDS011;66401;42.016;21.454;2024-03-23T06:31:13;13.13;;;8.33;;
62788;SDS011;66401;42.016;21.454;2024-03-23T06:33:39;13.57;;;8.03;;
62788;SDS011;66401;42.016;21.454;2024-03-23T06:36:09;16.20;;;8.90;;
62788;SDS011;66401;42.016;21.454;2024-03-23T06:38:36;17.77;;;9.30;;
62788;SDS011;66401;42.016;21.454;2024-03-23T06:41:03;15.13;;;8.50;;
62788;SDS011;66401;42.016;21.454;2024-03-23T06:43:29;16.00;;;9.33;;
62788;SDS011;66401;42.016;21.454;2024-03-23T06:45:55;19.07;;;9.13;;
62788;SDS011;66401;42.016;21.454;2024-03-23T06:48:21;16.00;;;8.80;;
62788;SDS011;66401;42.016;21.454;2024-03-23T06:50:46;13.80;;;8.70;;
62788;SDS011;66401;42.016;21.454;2024-03-23T06:53:15;23.13;;;9.57;;
62788;SDS011;66401;42.016;21.454;2024-03-23T06:55:41;18.60;;;10.20;;
62788;SDS011;66401;42.016;21.454;2024-03-23T06:58:07;25.43;;;14.27;;
62788;SDS011;66401;42.016;21.454;2024-03-23T07:00:33;25.70;;;13.27;;
62788;SDS011;66401;42.016;21.454;2024-03-23T07:02:59;13.77;;;9.43;;
62788;SDS011;66401;42.016;21.454;2024-03-23T07:05:25;16.13;;;9.33;;
62788;SDS011;66401;42.016;21.454;2024-03-23T07:07:50;21.43;;;10.03;;
62788;SDS011;66401;42.016;21.454;2024-03-23T07:10:16;17.80;;;8.63;;
62788;SDS011;66401;42.016;21.454;2024-03-23T07:12:42;18.40;;;9.57;;
62788;SDS011;66401;42.016;21.454;2024-03-23T07:15:08;16.73;;;9.33;;
62788;SDS011;66401;42.016;21.454;2024-03-23T07:17:34;20.43;;;10.00;;
62788;SDS011;66401;42.016;21.454;2024-03-23T07:20:00;17.60;;;9.97;;
62788;SDS011;66401;42.016;21.454;2024-03-23T07:22:32;22.60;;;9.40;;
62788;SDS011;66401;42.016;21.454;2024-03-23T07:25:01;15.37;;;7.73;;
62788;SDS011;66401;42.016;21.454;2024-03-23T07:27:26;11.00;;;7.73;;
62788;SDS011;66401;42.016;21.454;2024-03-23T07:29:52;16.27;;;8.17;;
62788;SDS011;66401;42.016;21.454;2024-03-23T07:32:17;16.17;;;8.33;;
62788;SDS011;66401;42.016;21.454;2024-03-23T07:34:43;11.13;;;7.67;;
62788;SDS011;66401;42.016;21.454;2024-03-23T07:37:09;19.30;;;9.63;;
62788;SDS011;66401;42.016;21.454;2024-03-23T07:39:35;11.07;;;5.70;;
62788;SDS011;66401;42.016;21.454;2024-03-23T07:42:01;10.03;;;6.90;;
62788;SDS011;66401;42.016;21.454;2024-03-23T07:44:27;9.30;;;6.60;;
62788;SDS011;66401;42.016;21.454;2024-03-23T07:46:52;14.53;;;6.80;;
62788;SDS011;66401;42.016;21.454;2024-03-23T07:49:18;10.30;;;7.03;;
62788;SDS011;66401;42.016;21.454;2024-03-23T07:51:43;13.37;;;8.03;;
62788;SDS011;66401;42.016;21.454;2024-03-23T07:54:10;7.77;;;6.47;;
62788;SDS011;66401;42.016;21.454;2024-03-23T07:56:35;11.53;;;8.37;;
62788;SDS011;66401;42.016;21.454;2024-03-23T07:59:01;11.07;;;7.57;;
62788;SDS011;66401;42.016;21.454;2024-03-23T08:01:29;10.83;;;7.07;;
62788;SDS011;66401;42.016;21.454;2024-03-23T08:03:55;14.23;;;8.77;;
62788;SDS011;66401;42.016;21.454;2024-03-23T08:06:20;14.93;;;9.00;;
62788;SDS011;66401;42.016;21.454;2024-03-23T08:08:57;18.37;;;9.10;;
62788;SDS011;66401;42.016;21.454;2024-03-23T08:11:29;19.93;;;9.67;;
62788;SDS011;66401;42.016;21.454;2024-03-23T08:13:56;18.30;;;9.40;;
62788;SDS011;66401;42.016;21.454;2024-03-23T08:16:23;12.57;;;8.90;;
62788;SDS011;66401;42.016;21.454;2024-03-23T08:18:51;15.97;;;9.10;;
62788;SDS011;66401;42.016;21.454;2024-03-23T08:21:19;13.77;;;8.60;;
62788;SDS011;66401;42.016;21.454;2024-03-23T08:23:44;15.33;;;8.77;;
62788;SDS011;66401;42.016;21.454;2024-03-23T08:26:10;14.07;;;8.23;;
62788;SDS011;66401;42.016;21.454;2024-03-23T08:28:37;11.20;;;7.77;;
62788;SDS011;66401;42.016;21.454;2024-03-23T08:31:04;13.17;;;7.37;;
62788;SDS011;66401;42.016;21.454;2024-03-23T08:33:32;11.80;;;8.47;;
62788;SDS011;66401;42.016;21.454;2024-03-23T08:36:01;13.30;;;7.90;;
62788;SDS011;66401;42.016;21.454;2024-03-23T08:38:28;9.87;;;8.80;;
62788;SDS011;66401;42.016;21.454;2024-03-23T08:41:02;11.43;;;8.67;;
62788;SDS011;66401;42.016;21.454;2024-03-23T08:43:28;13.60;;;8.40;;
62788;SDS011;66401;42.016;21.454;2024-03-23T08:46:17;12.77;;;8.90;;
62788;SDS011;66401;42.016;21.454;2024-03-23T08:48:43;10.40;;;8.57;;
62788;SDS011;66401;42.016;21.454;2024-03-23T08:51:11;12.40;;;8.77;;
62788;SDS011;66401;42.016;21.454;2024-03-23T08:53:38;10.30;;;8.90;;
62788;SDS011;66401;42.016;21.454;2024-03-23T08:56:05;9.13;;;7.67;;
62788;SDS011;66401;42.016;21.454;2024-03-23T08:58:32;11.70;;;8.27;;
62788;SDS011;66401;42.016;21.454;2024-03-23T09:01:08;10.97;;;8.47;;
62788;SDS011;66401;42.016;21.454;2024-03-23T09:03:36;12.20;;;8.40;;
62788;SDS011;66401;42.016;21.454;2024-03-23T09:06:06;13.13;;;8.83;;
62788;SDS011;66401;42.016;21.454;2024-03-23T09:08:33;10.73;;;8.07;;
62788;SDS011;66401;42.016;21.454;2024-03-23T09:11:03;10.40;;;8.13;;
62788;SDS011;66401;42.016;21.454;2024-03-23T09:13:31;13.90;;;7.90;;
62788;SDS011;66401;42.016;21.454;2024-03-23T09:15:57;11.40;;;7.83;;
62788;SDS011;66401;42.016;21.454;2024-03-23T09:18:23;10.37;;;7.97;;
62788;SDS011;66401;42.016;21.454;2024-03-23T09:20:49;9.90;;;8.10;;
62788;SDS011;66401;42.016;21.454;2024-03-23T09:23:15;12.57;;;7.60;;
62788;SDS011;66401;42.016;21.454;2024-03-23T09:25:40;8.43;;;7.57;;
62788;SDS011;66401;42.016;21.454;2024-03-23T09:28:06;9.73;;;7.70;;
62788;SDS011;66401;42.016;21.454;2024-03-23T09:30:34;10.40;;;7.50;;
62788;SDS011;66401;42.016;21.454;2024-03-23T09:33:00;10.60;;;7.70;;
62788;SDS011;66401;42.016;21.454;2024-03-23T09:35:26;7.67;;;6.87;;
62788;SDS011;66401;42.016;21.454;2024-03-23T09:37:52;19.83;;;13.57;;
62788;SDS011;66401;42.016;21.454;2024-03-23T09:40:18;15.83;;;8.83;;
62788;SDS011;66401;42.016;21.454;2024-03-23T09:42:49;9.87;;;8.50;;
62788;SDS011;66401;42.016;21.454;2024-03-23T09:45:23;11.07;;;8.67;;
62788;SDS011;66401;42.016;21.454;2024-03-23T09:47:55;11.32;;;8.68;;
62788;SDS011;66401;42.016;21.454;2024-03-23T09:50:21;14.73;;;9.35;;
62788;SDS011;66401;42.016;21.454;2024-03-23T09:52:47;11.18;;;7.75;;
62788;SDS011;66401;42.016;21.454;2024-03-23T09:55:13;9.95;;;7.53;;
62788;SDS011;66401;42.016;21.454;2024-03-23T09:57:39;10.30;;;6.55;;
62788;SDS011;66401;42.016;21.454;2024-03-23T10:00:05;8.13;;;7.30;;
62788;SDS011;66401;42.016;21.454;2024-03-23T10:02:32;7.32;;;6.32;;
62788;SDS011;66401;42.016;21.454;2024-03-23T10:05:02;7.60;;;6.25;;
62788;SDS011;66401;42.016;21.454;2024-03-23T10:07:28;9.50;;;6.60;;
62788;SDS011;66401;42.016;21.454;2024-03-23T10:09:54;8.45;;;5.53;;
62788;SDS011;66401;42.016;21.454;2024-03-23T10:12:19;8.07;;;6.82;;
62788;SDS011;66401;42.016;21.454;2024-03-23T10:14:45;9.50;;;7.30;;
62788;SDS011;66401;42.016;21.454;2024-03-23T10:19:51;7.18;;;5.65;;
62788;SDS011;66401;42.016;21.454;2024-03-23T10:22:20;8.20;;;6.65;;
62788;SDS011;66401;42.016;21.454;2024-03-23T10:24:47;8.75;;;7.55;;
62788;SDS011;66401;42.016;21.454;2024-03-23T10:27:17;7.85;;;6.38;;
62788;SDS011;66401;42.016;21.454;2024-03-23T10:29:47;9.73;;;5.93;;
62788;SDS011;66401;42.016;21.454;2024-03-23T10:32:14;8.57;;;6.85;;
62788;SDS011;66401;42.016;21.454;2024-03-23T10:34:41;12.05;;;6.40;;
62788;SDS011;66401;42.016;21.454;2024-03-23T10:37:07;9.23;;;6.75;;
62788;SDS011;66401;42.016;21.454;2024-03-23T10:39:34;7.00;;;6.30;;
62788;SDS011;66401;42.016;21.454;2024-03-23T10:42:07;8.27;;;5.65;;
62788;SDS011;66401;42.016;21.454;2024-03-23T10:44:35;5.93;;;5.43;;
62788;SDS011;66401;42.016;21.454;2024-03-23T10:47:01;7.85;;;4.88;;
62788;SDS011;66401;42.016;21.454;2024-03-23T10:49:34;6.35;;;4.82;;
62788;SDS011;66401;42.016;21.454;2024-03-23T10:52:01;5.55;;;5.05;;
62788;SDS011;66401;42.016;21.454;2024-03-23T10:54:31;7.03;;;5.40;;
62788;SDS011;66401;42.016;21.454;2024-03-23T10:57:17;6.72;;;5.32;;
62788;SDS011;66401;42.016;21.454;2024-03-23T10:59:45;7.05;;;5.07;;
62788;SDS011;66401;42.016;21.454;2024-03-23T11:02:21;5.57;;;5.07;;
62788;SDS011;66401;42.016;21.454;2024-03-23T11:04:47;9.98;;;4.85;;
62788;SDS011;66401;42.016;21.454;2024-03-23T11:09:53;5.53;;;4.60;;
62788;SDS011;66401;42.016;21.454;2024-03-23T11:14:52;7.93;;;4.78;;
62788;SDS011;66401;42.016;21.454;2024-03-23T11:17:31;9.60;;;6.80;;
62788;SDS011;66401;42.016;21.454;2024-03-23T11:20:01;9.70;;;5.72;;
62788;SDS011;66401;42.016;21.454;2024-03-23T11:22:37;6.00;;;5.40;;
62788;SDS011;66401;42.016;21.454;2024-03-23T11:25:14;5.13;;;4.63;;
62788;SDS011;66401;42.016;21.454;2024-03-23T11:27:50;7.78;;;4.60;;
62788;SDS011;66401;42.016;21.454;2024-03-23T11:30:20;6.50;;;4.32;;
62788;SDS011;66401;42.016;21.454;2024-03-23T11:32:48;6.03;;;4.75;;
62788;SDS011;66401;42.016;21.454;2024-03-23T11:35:28;5.50;;;4.50;;
62788;SDS011;66401;42.016;21.454;2024-03-23T11:38:06;6.30;;;4.85;;
62788;SDS011;66401;42.016;21.454;2024-03-23T11:43:08;7.05;;;4.70;;
62788;SDS011;66401;42.016;21.454;2024-03-23T11:45:51;4.35;;;3.95;;
62788;SDS011;66401;42.016;21.454;2024-03-23T11:48:23;5.30;;;4.50;;
62788;SDS011;66401;42.016;21.454;2024-03-23T11:50:50;4.70;;;4.30;;
62788;SDS011;66401;42.016;21.454;2024-03-23T11:53:22;4.18;;;3.88;;
62788;SDS011;66401;42.016;21.454;2024-03-23T11:58:19;6.75;;;4.50;;
62788;SDS011;66401;42.016;21.454;2024-03-23T12:00:58;4.65;;;4.15;;
62788;SDS011;66401;42.016;21.454;2024-03-23T12:03:27;4.88;;;4.22;;
62788;SDS011;66401;42.016;21.454;2024-03-23T12:06:00;6.30;;;3.70;;
62788;SDS011;66401;42.016;21.454;2024-03-23T12:08:30;7.85;;;3.97;;
62788;SDS011;66401;42.016;21.454;2024-03-23T12:13:31;4.22;;;3.83;;
62788;SDS011;66401;42.016;21.454;2024-03-23T12:16:08;6.07;;;4.22;;
62788;SDS011;66401;42.016;21.454;2024-03-23T12:19:05;3.95;;;3.55;;
62788;SDS011;66401;42.016;21.454;2024-03-23T12:21:31;3.05;;;2.85;;
62788;SDS011;66401;42.016;21.454;2024-03-23T12:23:56;3.78;;;3.15;;
62788;SDS011;66401;42.016;21.454;2024-03-23T12:26:22;3.42;;;3.10;;
62788;SDS011;66401;42.016;21.454;2024-03-23T12:28:48;4.23;;;2.93;;
62788;SDS011;66401;42.016;21.454;2024-03-23T12:31:13;3.70;;;3.33;;
62788;SDS011;66401;42.016;21.454;2024-03-23T12:33:39;3.67;;;3.00;;
62788;SDS011;66401;42.016;21.454;2024-03-23T12:36:05;4.33;;;3.40;;
62788;SDS011;66401;42.016;21.454;2024-03-23T12:38:30;4.53;;;3.30;;
62788;SDS011;66401;42.016;21.454;2024-03-23T12:40:56;3.47;;;3.00;;
62788;SDS011;66401;42.016;21.454;2024-03-23T12:43:21;3.03;;;2.73;;
62788;SDS011;66401;42.016;21.454;2024-03-23T12:45:47;3.20;;;2.90;;
62788;SDS011;66401;42.016;21.454;2024-03-23T12:48:13;5.20;;;4.30;;
62788;SDS011;66401;42.016;21.454;2024-03-23T12:50:42;4.97;;;3.00;;
62788;SDS011;66401;42.016;21.454;2024-03-23T12:53:08;3.13;;;2.83;;
62788;SDS011;66401;42.016;21.454;2024-03-23T12:55:36;3.03;;;2.60;;
62788;SDS011;66401;42.016;21.454;2024-03-23T12:58:02;4.70;;;3.20;;
62788;SDS011;66401;42.016;21.454;2024-03-23T13:00:28;6.93;;;3.10;;
62788;SDS011;66401;42.016;21.454;2024-03-23T13:02:54;3.57;;;3.10;;
62788;SDS011;66401;42.016;21.454;2024-03-23T13:05:21;6.63;;;3.37;;
62788;SDS011;66401;42.016;21.454;2024-03-23T13:07:47;5.33;;;3.63;;
62788;SDS011;66401;42.016;21.454;2024-03-23T13:10:16;5.00;;;3.77;;
62788;SDS011;66401;42.016;21.454;2024-03-23T13:12:41;3.33;;;3.03;;
62788;SDS011;66401;42.016;21.454;2024-03-23T13:15:08;4.90;;;4.00;;
62788;SDS011;66401;42.016;21.454;2024-03-23T13:17:34;3.87;;;3.50;;
62788;SDS011;66401;42.016;21.454;2024-03-23T13:19:59;3.67;;;3.07;;
62788;SDS011;66401;42.016;21.454;2024-03-23T13:22:25;4.50;;;3.30;;
62788;SDS011;66401;42.016;21.454;2024-03-23T13:24:50;4.73;;;4.07;;
62788;SDS011;66401;42.016;21.454;2024-03-23T13:27:28;2.90;;;2.70;;
62788;SDS011;66401;42.016;21.454;2024-03-23T13:29:53;3.80;;;3.17;;
62788;SDS011;66401;42.016;21.454;2024-03-23T13:32:18;3.30;;;2.87;;
62788;SDS011;66401;42.016;21.454;2024-03-23T13:34:44;4.47;;;2.73;;
62788;SDS011;66401;42.016;21.454;2024-03-23T13:37:09;3.63;;;3.00;;
62788;SDS011;66401;42.016;21.454;2024-03-23T13:39:35;3.33;;;3.03;;
62788;SDS011;66401;42.016;21.454;2024-03-23T13:42:01;6.83;;;2.77;;
62788;SDS011;66401;42.016;21.454;2024-03-23T13:44:28;4.40;;;3.07;;
62788;SDS011;66401;42.016;21.454;2024-03-23T13:46:54;3.13;;;2.60;;
62788;SDS011;66401;42.016;21.454;2024-03-23T13:49:26;3.47;;;2.87;;
62788;SDS011;66401;42.016;21.454;2024-03-23T13:51:56;3.07;;;2.77;;
62788;SDS011;66401;42.016;21.454;2024-03-23T13:54:23;6.57;;;3.47;;
62788;SDS011;66401;42.016;21.454;2024-03-23T13:56:52;4.80;;;3.03;;
62788;SDS011;66401;42.016;21.454;2024-03-23T13:59:19;3.20;;;2.90;;
62788;SDS011;66401;42.016;21.454;2024-03-23T14:01:49;4.67;;;3.43;;
62788;SDS011;66401;42.016;21.454;2024-03-23T14:04:15;4.63;;;3.13;;
62788;SDS011;66401;42.016;21.454;2024-03-23T14:06:49;4.33;;;3.07;;
62788;SDS011;66401;42.016;21.454;2024-03-23T14:09:14;3.53;;;3.23;;
62788;SDS011;66401;42.016;21.454;2024-03-23T14:11:47;10.43;;;5.67;;
62788;SDS011;66401;42.016;21.454;2024-03-23T14:14:12;5.30;;;3.90;;
62788;SDS011;66401;42.016;21.454;2024-03-23T14:16:38;4.47;;;3.47;;
62788;SDS011;66401;42.016;21.454;2024-03-23T14:19:03;4.10;;;3.27;;
62788;SDS011;66401;42.016;21.454;2024-03-23T14:21:30;4.03;;;3.00;;
62788;SDS011;66401;42.016;21.454;2024-03-23T14:23:56;6.43;;;3.67;;
62788;SDS011;66401;42.016;21.454;2024-03-23T14:26:22;4.30;;;2.90;;
62788;SDS011;66401;42.016;21.454;2024-03-23T14:28:47;3.23;;;2.93;;
62788;SDS011;66401;42.016;21.454;2024-03-23T14:31:14;4.03;;;3.20;;
62788;SDS011;66401;42.016;21.454;2024-03-23T14:33:39;4.33;;;3.50;;
62788;SDS011;66401;42.016;21.454;2024-03-23T14:36:15;7.77;;;3.37;;
62788;SDS011;66401;42.016;21.454;2024-03-23T14:38:42;3.50;;;3.07;;
62788;SDS011;66401;42.016;21.454;2024-03-23T14:41:12;5.73;;;4.57;;
62788;SDS011;66401;42.016;21.454;2024-03-23T14:43:37;4.97;;;3.87;;
62788;SDS011;66401;42.016;21.454;2024-03-23T14:46:07;4.07;;;3.63;;
62788;SDS011;66401;42.016;21.454;2024-03-23T14:48:33;5.27;;;3.00;;
62788;SDS011;66401;42.016;21.454;2024-03-23T14:51:00;4.03;;;3.40;;
62788;SDS011;66401;42.016;21.454;2024-03-23T14:53:26;9.83;;;7.63;;
62788;SDS011;66401;42.016;21.454;2024-03-23T14:55:55;3.97;;;3.03;;
62788;SDS011;66401;42.016;21.454;2024-03-23T14:58:21;3.50;;;3.20;;
62788;SDS011;66401;42.016;21.454;2024-03-23T15:00:48;6.50;;;2.90;;
62788;SDS011;66401;42.016;21.454;2024-03-23T15:03:14;3.40;;;3.10;;
62788;SDS011;66401;42.016;21.454;2024-03-23T15:05:39;2.93;;;2.70;;
62788;SDS011;66401;42.016;21.454;2024-03-23T15:08:05;3.43;;;3.13;;
62788;SDS011;66401;42.016;21.454;2024-03-23T15:10:32;3.50;;;3.20;;
62788;SDS011;66401;42.016;21.454;2024-03-23T15:12:58;5.23;;;3.57;;
62788;SDS011;66401;42.016;21.454;2024-03-23T15:15:24;4.33;;;3.10;;
62788;SDS011;66401;42.016;21.454;2024-03-23T15:17:49;4.00;;;2.97;;
62788;SDS011;66401;42.016;21.454;2024-03-23T15:20:15;3.50;;;3.10;;
62788;SDS011;66401;42.016;21.454;2024-03-23T15:22:41;4.77;;;3.23;;
62788;SDS011;66401;42.016;21.454;2024-03-23T15:25:07;4.00;;;3.20;;
62788;SDS011;66401;42.016;21.454;2024-03-23T15:27:33;3.53;;;3.07;;
62788;SDS011;66401;42.016;21.454;2024-03-23T15:29:59;3.43;;;3.13;;
62788;SDS011;66401;42.016;21.454;2024-03-23T15:32:24;3.97;;;3.43;;
62788;SDS011;66401;42.016;21.454;2024-03-23T15:34:50;5.27;;;3.37;;